sensor_id;sensor_type;location;lat;lon;timestamp;pressure;altitude;pressure_sealevel;temperature;humidity
8101;BME280;4093;53.470;9.832;2023-08-07T00:02:15;100412.81;;;20.22;82.38
8101;BME280;4093;53.470;9.832;2023-08-07T00:04:43;100422.56;;;20.20;81.84
8101;BME280;4093;53.470;9.832;2023-08-07T00:07:11;100419.56;;;20.26;82.65
8101;BME280;4093;53.470;9.832;2023-08-07T00:09:40;100405.72;;;19.95;82.80
8101;BME280;4093;53.470;9.832;2023-08-07T00:12:08;100409.81;;;19.99;83.23
8101;BME280;4093;53.470;9.832;2023-08-07T00:14:35;100409.06;;;20.11;82.85
8101;BME280;4093;53.470;9.832;2023-08-07T00:17:03;100412.25;;;20.17;82.28
8101;BME280;4093;53.470;9.832;2023-08-07T00:19:32;100403.22;;;20.21;80.50
8101;BME280;4093;53.470;9.832;2023-08-07T00:22:00;100385.84;;;19.91;81.72
8101;BME280;4093;53.470;9.832;2023-08-07T00:24:27;100394.94;;;20.00;81.90
8101;BME280;4093;53.470;9.832;2023-08-07T00:26:56;100397.19;;;19.92;81.37
8101;BME280;4093;53.470;9.832;2023-08-07T00:29:24;100396.13;;;20.08;81.21
8101;BME280;4093;53.470;9.832;2023-08-07T00:31:52;100391.38;;;19.86;81.67
8101;BME280;4093;53.470;9.832;2023-08-07T00:34:20;100399.53;;;19.96;80.91
8101;BME280;4093;53.470;9.832;2023-08-07T00:36:48;100396.91;;;19.82;81.04
8101;BME280;4093;53.470;9.832;2023-08-07T00:39:15;100401.38;;;20.08;80.56
8101;BME280;4093;53.470;9.832;2023-08-07T00:41:43;100403.50;;;19.75;81.10
8101;BME280;4093;53.470;9.832;2023-08-07T00:44:13;100401.41;;;19.94;79.73
8101;BME280;4093;53.470;9.832;2023-08-07T00:46:41;100400.50;;;19.81;80.22
8101;BME280;4093;53.470;9.832;2023-08-07T00:49:11;100401.06;;;19.72;80.58
8101;BME280;4093;53.470;9.832;2023-08-07T00:51:39;100401.97;;;19.85;81.24
8101;BME280;4093;53.470;9.832;2023-08-07T00:54:10;100394.19;;;19.83;80.82
8101;BME280;4093;53.470;9.832;2023-08-07T00:56:39;100406.47;;;19.97;80.78
8101;BME280;4093;53.470;9.832;2023-08-07T00:59:07;100403.53;;;20.02;80.57
8101;BME280;4093;53.470;9.832;2023-08-07T01:01:37;100404.19;;;20.05;80.05
8101;BME280;4093;53.470;9.832;2023-08-07T01:04:05;100409.44;;;20.05;80.47
8101;BME280;4093;53.470;9.832;2023-08-07T01:06:33;100406.75;;;20.07;80.75
8101;BME280;4093;53.470;9.832;2023-08-07T01:09:01;100408.59;;;20.05;79.90
8101;BME280;4093;53.470;9.832;2023-08-07T01:11:33;100408.72;;;20.03;79.97
8101;BME280;4093;53.470;9.832;2023-08-07T01:14:08;100401.06;;;19.72;81.63
8101;BME280;4093;53.470;9.832;2023-08-07T01:16:46;100396.47;;;19.75;82.42
8101;BME280;4093;53.470;9.832;2023-08-07T01:19:19;100395.56;;;19.32;83.98
8101;BME280;4093;53.470;9.832;2023-08-07T01:22:03;100397.53;;;19.57;82.68
8101;BME280;4093;53.470;9.832;2023-08-07T01:24:31;100397.34;;;19.31;83.92
8101;BME280;4093;53.470;9.832;2023-08-07T01:27:05;100404.97;;;19.64;83.02
8101;BME280;4093;53.470;9.832;2023-08-07T01:29:42;100402.91;;;19.98;81.55
8101;BME280;4093;53.470;9.832;2023-08-07T01:32:13;100396.28;;;19.78;81.52
8101;BME280;4093;53.470;9.832;2023-08-07T01:34:43;100377.47;;;19.41;83.52
8101;BME280;4093;53.470;9.832;2023-08-07T01:37:14;100388.09;;;19.40;84.40
8101;BME280;4093;53.470;9.832;2023-08-07T01:39:42;100391.16;;;19.61;83.67
8101;BME280;4093;53.470;9.832;2023-08-07T01:42:11;100390.25;;;19.76;82.94
8101;BME280;4093;53.470;9.832;2023-08-07T01:44:39;100386.22;;;19.85;82.17
8101;BME280;4093;53.470;9.832;2023-08-07T01:47:07;100377.81;;;19.66;82.90
8101;BME280;4093;53.470;9.832;2023-08-07T01:49:34;100369.47;;;19.73;82.27
8101;BME280;4093;53.470;9.832;2023-08-07T01:52:06;100379.66;;;19.63;82.83
8101;BME280;4093;53.470;9.832;2023-08-07T01:54:35;100383.78;;;19.68;83.01
8101;BME280;4093;53.470;9.832;2023-08-07T01:57:03;100379.19;;;19.57;82.52
8101;BME280;4093;53.470;9.832;2023-08-07T01:59:31;100375.50;;;19.45;82.50
8101;BME280;4093;53.470;9.832;2023-08-07T02:01:59;100376.78;;;19.24;84.42
8101;BME280;4093;53.470;9.832;2023-08-07T02:04:27;100387.03;;;19.28;83.76
8101;BME280;4093;53.470;9.832;2023-08-07T02:06:55;100389.84;;;19.54;82.29
8101;BME280;4093;53.470;9.832;2023-08-07T02:09:23;100386.53;;;19.66;81.12
8101;BME280;4093;53.470;9.832;2023-08-07T02:11:52;100380.91;;;19.72;80.83
8101;BME280;4093;53.470;9.832;2023-08-07T02:14:19;100373.19;;;19.55;81.08
8101;BME280;4093;53.470;9.832;2023-08-07T02:16:47;100370.19;;;19.47;80.98
8101;BME280;4093;53.470;9.832;2023-08-07T02:19:15;100369.03;;;19.36;80.90
8101;BME280;4093;53.470;9.832;2023-08-07T02:21:42;100367.81;;;19.42;81.28
8101;BME280;4093;53.470;9.832;2023-08-07T02:24:10;100371.59;;;19.38;80.48
8101;BME280;4093;53.470;9.832;2023-08-07T02:26:38;100368.00;;;19.39;81.40
8101;BME280;4093;53.470;9.832;2023-08-07T02:29:07;100368.22;;;19.50;80.12
8101;BME280;4093;53.470;9.832;2023-08-07T02:31:35;100354.31;;;19.19;81.35
8101;BME280;4093;53.470;9.832;2023-08-07T02:34:03;100363.78;;;19.22;81.02
8101;BME280;4093;53.470;9.832;2023-08-07T02:36:31;100367.19;;;19.38;80.21
8101;BME280;4093;53.470;9.832;2023-08-07T02:38:58;100363.72;;;19.38;80.39
8101;BME280;4093;53.470;9.832;2023-08-07T02:41:26;100361.78;;;19.11;81.26
8101;BME280;4093;53.470;9.832;2023-08-07T02:43:54;100359.94;;;19.13;81.06
8101;BME280;4093;53.470;9.832;2023-08-07T02:46:23;100365.66;;;19.20;81.33
8101;BME280;4093;53.470;9.832;2023-08-07T02:48:51;100355.22;;;19.04;81.80
8101;BME280;4093;53.470;9.832;2023-08-07T02:51:20;100346.53;;;19.04;82.36
8101;BME280;4093;53.470;9.832;2023-08-07T02:53:47;100350.53;;;18.95;82.35
8101;BME280;4093;53.470;9.832;2023-08-07T02:56:15;100357.78;;;19.06;81.26
8101;BME280;4093;53.470;9.832;2023-08-07T02:58:43;100355.81;;;19.09;80.84
8101;BME280;4093;53.470;9.832;2023-08-07T03:01:10;100370.91;;;19.20;80.93
8101;BME280;4093;53.470;9.832;2023-08-07T03:03:40;100351.34;;;18.81;82.11
8101;BME280;4093;53.470;9.832;2023-08-07T03:06:07;100371.31;;;18.98;81.53
8101;BME280;4093;53.470;9.832;2023-08-07T03:08:35;100372.44;;;18.94;83.35
8101;BME280;4093;53.470;9.832;2023-08-07T03:11:03;100372.09;;;19.00;82.98
8101;BME280;4093;53.470;9.832;2023-08-07T03:13:31;100363.94;;;19.05;81.76
8101;BME280;4093;53.470;9.832;2023-08-07T03:15:59;100374.47;;;19.33;81.26
8101;BME280;4093;53.470;9.832;2023-08-07T03:18:27;100367.84;;;19.28;80.68
8101;BME280;4093;53.470;9.832;2023-08-07T03:20:56;100366.72;;;19.32;81.33
8101;BME280;4093;53.470;9.832;2023-08-07T03:23:24;100369.50;;;19.29;80.98
8101;BME280;4093;53.470;9.832;2023-08-07T03:26:02;100375.16;;;19.37;80.90
8101;BME280;4093;53.470;9.832;2023-08-07T03:28:44;100379.22;;;19.12;81.42
8101;BME280;4093;53.470;9.832;2023-08-07T03:31:14;100375.16;;;19.37;80.37
8101;BME280;4093;53.470;9.832;2023-08-07T03:33:44;100376.72;;;19.39;81.10
8101;BME280;4093;53.470;9.832;2023-08-07T03:36:13;100366.31;;;19.09;81.89
8101;BME280;4093;53.470;9.832;2023-08-07T03:38:41;100368.34;;;19.04;81.91
8101;BME280;4093;53.470;9.832;2023-08-07T03:41:09;100371.38;;;19.12;81.25
8101;BME280;4093;53.470;9.832;2023-08-07T03:43:36;100373.25;;;19.25;81.32
8101;BME280;4093;53.470;9.832;2023-08-07T03:46:04;100379.72;;;19.19;81.42
8101;BME280;4093;53.470;9.832;2023-08-07T03:48:32;100375.88;;;19.25;81.21
8101;BME280;4093;53.470;9.832;2023-08-07T03:51:03;100382.81;;;19.26;81.25
8101;BME280;4093;53.470;9.832;2023-08-07T03:53:33;100379.44;;;19.38;80.79
8101;BME280;4093;53.470;9.832;2023-08-07T03:56:01;100373.06;;;19.28;81.37
8101;BME280;4093;53.470;9.832;2023-08-07T03:58:29;100365.00;;;19.02;82.35
8101;BME280;4093;53.470;9.832;2023-08-07T04:00:57;100382.25;;;19.35;81.36
8101;BME280;4093;53.470;9.832;2023-08-07T04:03:25;100364.28;;;18.99;82.20
8101;BME280;4093;53.470;9.832;2023-08-07T04:05:53;100359.84;;;19.15;81.65
8101;BME280;4093;53.470;9.832;2023-08-07T04:08:22;100376.66;;;19.41;80.98
8101;BME280;4093;53.470;9.832;2023-08-07T04:11:01;100376.44;;;19.30;81.48
8101;BME280;4093;53.470;9.832;2023-08-07T04:13:30;100373.34;;;19.23;82.76
8101;BME280;4093;53.470;9.832;2023-08-07T04:15:58;100380.56;;;19.48;81.57
8101;BME280;4093;53.470;9.832;2023-08-07T04:18:27;100381.34;;;19.50;81.95
8101;BME280;4093;53.470;9.832;2023-08-07T04:20:56;100366.34;;;19.38;82.54
8101;BME280;4093;53.470;9.832;2023-08-07T04:23:24;100373.81;;;19.30;82.78
8101;BME280;4093;53.470;9.832;2023-08-07T04:25:53;100343.44;;;19.11;83.41
8101;BME280;4093;53.470;9.832;2023-08-07T04:28:23;100381.22;;;19.37;82.99
8101;BME280;4093;53.470;9.832;2023-08-07T04:30:51;100374.19;;;19.24;83.80
8101;BME280;4093;53.470;9.832;2023-08-07T04:33:20;100380.59;;;19.34;84.04
8101;BME280;4093;53.470;9.832;2023-08-07T04:35:48;100391.34;;;19.58;82.57
8101;BME280;4093;53.470;9.832;2023-08-07T04:38:16;100374.97;;;19.40;83.59
8101;BME280;4093;53.470;9.832;2023-08-07T04:40:45;100387.59;;;19.48;83.63
8101;BME280;4093;53.470;9.832;2023-08-07T04:43:13;100397.06;;;19.50;82.95
8101;BME280;4093;53.470;9.832;2023-08-07T04:45:42;100398.03;;;19.49;82.83
8101;BME280;4093;53.470;9.832;2023-08-07T04:48:12;100386.84;;;19.31;84.14
8101;BME280;4093;53.470;9.832;2023-08-07T04:50:40;100392.09;;;19.31;84.67
8101;BME280;4093;53.470;9.832;2023-08-07T04:53:08;100396.59;;;19.44;83.77
8101;BME280;4093;53.470;9.832;2023-08-07T04:55:36;100404.94;;;19.50;83.96
8101;BME280;4093;53.470;9.832;2023-08-07T04:58:04;100395.41;;;19.49;83.52
8101;BME280;4093;53.470;9.832;2023-08-07T05:00:32;100391.69;;;19.23;84.34
8101;BME280;4093;53.470;9.832;2023-08-07T05:03:01;100398.06;;;19.19;84.68
8101;BME280;4093;53.470;9.832;2023-08-07T05:05:29;100399.38;;;19.26;84.63
8101;BME280;4093;53.470;9.832;2023-08-07T05:07:58;100411.50;;;19.43;83.02
8101;BME280;4093;53.470;9.832;2023-08-07T05:10:26;100404.06;;;19.35;84.21
8101;BME280;4093;53.470;9.832;2023-08-07T05:12:54;100403.22;;;19.35;84.48
8101;BME280;4093;53.470;9.832;2023-08-07T05:15:22;100403.13;;;19.22;86.33
8101;BME280;4093;53.470;9.832;2023-08-07T05:17:50;100401.63;;;19.18;85.17
8101;BME280;4093;53.470;9.832;2023-08-07T05:20:20;100410.72;;;19.55;84.22
8101;BME280;4093;53.470;9.832;2023-08-07T05:22:48;100400.56;;;19.21;85.38
8101;BME280;4093;53.470;9.832;2023-08-07T05:25:16;100406.31;;;19.72;83.75
8101;BME280;4093;53.470;9.832;2023-08-07T05:27:45;100403.22;;;19.35;85.29
8101;BME280;4093;53.470;9.832;2023-08-07T05:30:13;100412.88;;;19.49;85.75
8101;BME280;4093;53.470;9.832;2023-08-07T05:32:41;100407.97;;;19.73;84.62
8101;BME280;4093;53.470;9.832;2023-08-07T05:35:09;100404.50;;;19.72;84.19
8101;BME280;4093;53.470;9.832;2023-08-07T05:37:39;100409.19;;;19.67;85.34
8101;BME280;4093;53.470;9.832;2023-08-07T05:40:07;100401.59;;;19.62;85.18
8101;BME280;4093;53.470;9.832;2023-08-07T05:42:38;100410.75;;;19.41;86.38
8101;BME280;4093;53.470;9.832;2023-08-07T05:45:07;100407.47;;;19.52;86.91
8101;BME280;4093;53.470;9.832;2023-08-07T05:47:36;100408.34;;;19.67;86.52
8101;BME280;4093;53.470;9.832;2023-08-07T05:50:05;100408.25;;;19.97;84.46
8101;BME280;4093;53.470;9.832;2023-08-07T05:52:33;100405.44;;;20.00;84.07
8101;BME280;4093;53.470;9.832;2023-08-07T05:55:02;100412.81;;;20.07;84.31
8101;BME280;4093;53.470;9.832;2023-08-07T05:57:33;100403.63;;;19.57;86.15
8101;BME280;4093;53.470;9.832;2023-08-07T06:00:00;100419.88;;;19.78;85.52
8101;BME280;4093;53.470;9.832;2023-08-07T06:02:28;100411.00;;;19.81;84.99
8101;BME280;4093;53.470;9.832;2023-08-07T06:04:56;100424.44;;;20.18;83.79
8101;BME280;4093;53.470;9.832;2023-08-07T06:07:24;100419.19;;;21.26;80.29
8101;BME280;4093;53.470;9.832;2023-08-07T06:09:52;100414.47;;;21.95;77.05
8101;BME280;4093;53.470;9.832;2023-08-07T06:12:21;100382.06;;;21.43;77.68
8101;BME280;4093;53.470;9.832;2023-08-07T06:14:49;100389.31;;;21.65;78.22
8101;BME280;4093;53.470;9.832;2023-08-07T06:17:16;100398.44;;;22.48;74.70
8101;BME280;4093;53.470;9.832;2023-08-07T06:19:44;100383.75;;;22.32;74.60
8101;BME280;4093;53.470;9.832;2023-08-07T06:22:12;100371.00;;;21.25;77.94
8101;BME280;4093;53.470;9.832;2023-08-07T06:24:39;100380.09;;;21.60;77.29
8101;BME280;4093;53.470;9.832;2023-08-07T06:27:07;100400.84;;;22.99;73.15
8101;BME280;4093;53.470;9.832;2023-08-07T06:29:36;100384.97;;;23.34;72.04
8101;BME280;4093;53.470;9.832;2023-08-07T06:32:05;100389.31;;;24.02;69.04
8101;BME280;4093;53.470;9.832;2023-08-07T06:34:35;100384.13;;;24.12;68.39
8101;BME280;4093;53.470;9.832;2023-08-07T06:37:05;100388.66;;;24.44;67.17
8101;BME280;4093;53.470;9.832;2023-08-07T06:39:32;100366.81;;;23.07;70.15
8101;BME280;4093;53.470;9.832;2023-08-07T06:42:00;100366.50;;;22.03;73.99
8101;BME280;4093;53.470;9.832;2023-08-07T06:44:29;100357.97;;;21.62;75.16
8101;BME280;4093;53.470;9.832;2023-08-07T06:46:58;100371.59;;;21.93;74.80
8101;BME280;4093;53.470;9.832;2023-08-07T06:49:26;100376.38;;;22.12;74.22
8101;BME280;4093;53.470;9.832;2023-08-07T06:51:54;100363.44;;;22.09;73.91
8101;BME280;4093;53.470;9.832;2023-08-07T06:54:22;100369.72;;;21.82;73.97
8101;BME280;4093;53.470;9.832;2023-08-07T06:56:49;100388.41;;;20.88;77.91
8101;BME280;4093;53.470;9.832;2023-08-07T06:59:17;100386.38;;;20.10;81.23
8101;BME280;4093;53.470;9.832;2023-08-07T07:01:45;100392.75;;;19.35;83.73
8101;BME280;4093;53.470;9.832;2023-08-07T07:04:14;100409.25;;;19.37;85.46
8101;BME280;4093;53.470;9.832;2023-08-07T07:06:42;100432.66;;;19.40;85.20
8101;BME280;4093;53.470;9.832;2023-08-07T07:09:09;100437.13;;;19.97;83.87
8101;BME280;4093;53.470;9.832;2023-08-07T07:11:37;100428.00;;;20.17;82.04
8101;BME280;4093;53.470;9.832;2023-08-07T07:14:05;100434.38;;;21.86;78.53
8101;BME280;4093;53.470;9.832;2023-08-07T07:16:33;100406.16;;;20.85;77.94
8101;BME280;4093;53.470;9.832;2023-08-07T07:19:01;100403.63;;;20.15;80.20
8101;BME280;4093;53.470;9.832;2023-08-07T07:21:30;100423.53;;;20.46;79.91
8101;BME280;4093;53.470;9.832;2023-08-07T07:23:57;100423.25;;;19.66;82.42
8101;BME280;4093;53.470;9.832;2023-08-07T07:26:25;100431.41;;;19.90;82.65
8101;BME280;4093;53.470;9.832;2023-08-07T07:28:53;100426.97;;;19.62;83.58
8101;BME280;4093;53.470;9.832;2023-08-07T07:31:21;100432.84;;;19.37;85.22
8101;BME280;4093;53.470;9.832;2023-08-07T07:33:49;100454.00;;;19.34;85.77
8101;BME280;4093;53.470;9.832;2023-08-07T07:36:17;100452.34;;;18.87;88.00
8101;BME280;4093;53.470;9.832;2023-08-07T07:38:48;100452.91;;;18.44;89.16
8101;BME280;4093;53.470;9.832;2023-08-07T07:41:16;100461.28;;;18.51;88.95
8101;BME280;4093;53.470;9.832;2023-08-07T07:43:44;100474.50;;;19.11;87.38
8101;BME280;4093;53.470;9.832;2023-08-07T07:46:11;100465.97;;;19.38;85.68
8101;BME280;4093;53.470;9.832;2023-08-07T07:48:39;100468.88;;;20.35;82.15
8101;BME280;4093;53.470;9.832;2023-08-07T07:51:07;100452.53;;;20.44;80.29
8101;BME280;4093;53.470;9.832;2023-08-07T07:53:36;100444.16;;;20.10;80.37
8101;BME280;4093;53.470;9.832;2023-08-07T07:56:05;100460.59;;;20.55;79.77
8101;BME280;4093;53.470;9.832;2023-08-07T07:58:33;100441.25;;;20.15;81.26
8101;BME280;4093;53.470;9.832;2023-08-07T08:01:00;100452.59;;;19.87;81.21
8101;BME280;4093;53.470;9.832;2023-08-07T08:03:28;100456.81;;;19.31;81.30
8101;BME280;4093;53.470;9.832;2023-08-07T08:05:56;100469.84;;;19.16;82.22
8101;BME280;4093;53.470;9.832;2023-08-07T08:08:24;100472.34;;;18.56;86.09
8101;BME280;4093;53.470;9.832;2023-08-07T08:10:54;100482.72;;;18.58;86.63
8101;BME280;4093;53.470;9.832;2023-08-07T08:13:23;100507.09;;;19.37;84.74
8101;BME280;4093;53.470;9.832;2023-08-07T08:15:52;100508.09;;;20.09;83.73
8101;BME280;4093;53.470;9.832;2023-08-07T08:18:20;100496.94;;;20.20;81.58
8101;BME280;4093;53.470;9.832;2023-08-07T08:20:47;100490.16;;;20.02;81.11
8101;BME280;4093;53.470;9.832;2023-08-07T08:23:15;100491.00;;;20.02;80.14
8101;BME280;4093;53.470;9.832;2023-08-07T08:25:43;100444.13;;;19.68;80.76
8101;BME280;4093;53.470;9.832;2023-08-07T08:28:10;100478.91;;;19.41;80.53
8101;BME280;4093;53.470;9.832;2023-08-07T08:30:40;100508.34;;;20.33;78.42
8101;BME280;4093;53.470;9.832;2023-08-07T08:33:07;100509.88;;;21.33;75.45
8101;BME280;4093;53.470;9.832;2023-08-07T08:35:38;100490.72;;;22.35;71.82
8101;BME280;4093;53.470;9.832;2023-08-07T08:38:06;100506.78;;;23.52;68.71
8101;BME280;4093;53.470;9.832;2023-08-07T08:40:35;100491.59;;;22.47;68.16
8101;BME280;4093;53.470;9.832;2023-08-07T08:43:05;100476.44;;;22.74;66.23
8101;BME280;4093;53.470;9.832;2023-08-07T08:45:33;100463.81;;;22.91;65.33
8101;BME280;4093;53.470;9.832;2023-08-07T08:48:07;100474.41;;;21.53;67.30
8101;BME280;4093;53.470;9.832;2023-08-07T08:50:38;100479.69;;;22.54;66.72
8101;BME280;4093;53.470;9.832;2023-08-07T08:53:07;100488.75;;;22.86;63.54
8101;BME280;4093;53.470;9.832;2023-08-07T08:55:37;100481.97;;;21.96;63.55
8101;BME280;4093;53.470;9.832;2023-08-07T08:58:09;100489.31;;;21.53;65.03
8101;BME280;4093;53.470;9.832;2023-08-07T09:00:37;100491.75;;;21.16;65.22
8101;BME280;4093;53.470;9.832;2023-08-07T09:03:06;100498.75;;;20.75;65.28
8101;BME280;4093;53.470;9.832;2023-08-07T09:05:35;100493.56;;;20.88;64.72
8101;BME280;4093;53.470;9.832;2023-08-07T09:08:04;100501.34;;;21.44;62.57
8101;BME280;4093;53.470;9.832;2023-08-07T09:10:33;100495.06;;;21.85;60.84
8101;BME280;4093;53.470;9.832;2023-08-07T09:13:03;100501.00;;;22.12;60.04
8101;BME280;4093;53.470;9.832;2023-08-07T09:15:32;100494.34;;;22.58;59.52
8101;BME280;4093;53.470;9.832;2023-08-07T09:18:02;100497.03;;;22.32;60.74
8101;BME280;4093;53.470;9.832;2023-08-07T09:20:35;100491.06;;;22.54;60.92
8101;BME280;4093;53.470;9.832;2023-08-07T09:23:04;100492.28;;;21.48;60.65
8101;BME280;4093;53.470;9.832;2023-08-07T09:25:33;100497.91;;;20.75;62.60
8101;BME280;4093;53.470;9.832;2023-08-07T09:28:02;100515.94;;;20.81;64.11
8101;BME280;4093;53.470;9.832;2023-08-07T09:30:32;100502.06;;;21.19;62.89
8101;BME280;4093;53.470;9.832;2023-08-07T09:33:02;100510.22;;;21.81;62.07
8101;BME280;4093;53.470;9.832;2023-08-07T09:35:30;100512.38;;;21.49;62.73
8101;BME280;4093;53.470;9.832;2023-08-07T09:38:00;100523.56;;;21.25;62.61
8101;BME280;4093;53.470;9.832;2023-08-07T09:40:29;100524.31;;;21.00;61.52
8101;BME280;4093;53.470;9.832;2023-08-07T09:42:57;100534.53;;;20.21;64.12
8101;BME280;4093;53.470;9.832;2023-08-07T09:45:26;100544.00;;;20.38;64.88
8101;BME280;4093;53.470;9.832;2023-08-07T09:47:59;100550.13;;;20.52;66.17
8101;BME280;4093;53.470;9.832;2023-08-07T09:50:28;100546.63;;;20.09;67.73
8101;BME280;4093;53.470;9.832;2023-08-07T09:52:56;100558.72;;;20.11;67.96
8101;BME280;4093;53.470;9.832;2023-08-07T09:55:26;100537.16;;;20.06;66.97
8101;BME280;4093;53.470;9.832;2023-08-07T09:57:54;100560.97;;;20.03;67.76
8101;BME280;4093;53.470;9.832;2023-08-07T10:00:22;100580.94;;;20.06;67.78
8101;BME280;4093;53.470;9.832;2023-08-07T10:02:51;100581.50;;;19.97;68.55
8101;BME280;4093;53.470;9.832;2023-08-07T10:05:19;100577.59;;;19.58;69.35
8101;BME280;4093;53.470;9.832;2023-08-07T10:07:48;100574.03;;;19.75;68.11
8101;BME280;4093;53.470;9.832;2023-08-07T10:10:17;100549.16;;;20.10;66.91
8101;BME280;4093;53.470;9.832;2023-08-07T10:12:46;100579.19;;;20.78;64.96
8101;BME280;4093;53.470;9.832;2023-08-07T10:15:15;100590.47;;;21.48;64.51
8101;BME280;4093;53.470;9.832;2023-08-07T10:17:43;100572.50;;;20.87;64.89
8101;BME280;4093;53.470;9.832;2023-08-07T10:20:11;100563.00;;;21.53;65.41
8101;BME280;4093;53.470;9.832;2023-08-07T10:22:40;100563.31;;;22.01;63.53
8101;BME280;4093;53.470;9.832;2023-08-07T10:25:08;100544.97;;;21.99;62.79
8101;BME280;4093;53.470;9.832;2023-08-07T10:27:38;100558.78;;;22.54;63.01
8101;BME280;4093;53.470;9.832;2023-08-07T10:30:11;100552.69;;;21.49;64.10
8101;BME280;4093;53.470;9.832;2023-08-07T10:32:41;100538.91;;;21.59;61.70
8101;BME280;4093;53.470;9.832;2023-08-07T10:35:23;100521.44;;;21.31;62.39
8101;BME280;4093;53.470;9.832;2023-08-07T10:37:52;100558.25;;;20.76;63.02
8101;BME280;4093;53.470;9.832;2023-08-07T10:40:20;100575.06;;;20.74;63.72
8101;BME280;4093;53.470;9.832;2023-08-07T10:42:55;100556.47;;;20.48;63.45
8101;BME280;4093;53.470;9.832;2023-08-07T10:45:25;100559.13;;;20.63;63.10
8101;BME280;4093;53.470;9.832;2023-08-07T10:47:57;100567.72;;;21.20;63.92
8101;BME280;4093;53.470;9.832;2023-08-07T10:50:29;100561.78;;;21.71;62.60
8101;BME280;4093;53.470;9.832;2023-08-07T10:52:59;100562.94;;;21.67;61.42
8101;BME280;4093;53.470;9.832;2023-08-07T10:55:31;100562.56;;;21.99;59.58
8101;BME280;4093;53.470;9.832;2023-08-07T10:57:59;100555.44;;;21.61;59.73
8101;BME280;4093;53.470;9.832;2023-08-07T11:00:29;100549.63;;;21.56;60.30
8101;BME280;4093;53.470;9.832;2023-08-07T11:02:58;100558.63;;;21.12;62.33
8101;BME280;4093;53.470;9.832;2023-08-07T11:05:27;100540.56;;;20.66;63.47
8101;BME280;4093;53.470;9.832;2023-08-07T11:07:55;100561.56;;;20.66;63.17
8101;BME280;4093;53.470;9.832;2023-08-07T11:10:24;100570.06;;;20.84;61.41
8101;BME280;4093;53.470;9.832;2023-08-07T11:12:52;100581.06;;;20.90;61.99
8101;BME280;4093;53.470;9.832;2023-08-07T11:15:19;100600.66;;;20.99;62.67
8101;BME280;4093;53.470;9.832;2023-08-07T11:17:50;100602.41;;;21.13;61.75
8101;BME280;4093;53.470;9.832;2023-08-07T11:20:18;100595.50;;;21.24;61.89
8101;BME280;4093;53.470;9.832;2023-08-07T11:22:46;100608.56;;;21.26;62.95
8101;BME280;4093;53.470;9.832;2023-08-07T11:25:15;100608.59;;;21.53;62.33
8101;BME280;4093;53.470;9.832;2023-08-07T11:27:43;100615.63;;;21.53;63.10
8101;BME280;4093;53.470;9.832;2023-08-07T11:30:11;100611.63;;;21.06;61.78
8101;BME280;4093;53.470;9.832;2023-08-07T11:32:40;100621.34;;;20.76;62.41
8101;BME280;4093;53.470;9.832;2023-08-07T11:35:09;100623.69;;;20.67;63.45
8101;BME280;4093;53.470;9.832;2023-08-07T11:37:45;100634.84;;;20.11;65.86
8101;BME280;4093;53.470;9.832;2023-08-07T11:40:14;100639.69;;;19.89;68.43
8101;BME280;4093;53.470;9.832;2023-08-07T11:42:41;100653.81;;;20.17;68.70
8101;BME280;4093;53.470;9.832;2023-08-07T11:45:09;100649.53;;;20.30;69.56
8101;BME280;4093;53.470;9.832;2023-08-07T11:47:37;100630.31;;;20.87;67.42
8101;BME280;4093;53.470;9.832;2023-08-07T11:50:09;100648.09;;;21.24;66.66
8101;BME280;4093;53.470;9.832;2023-08-07T11:52:37;100632.06;;;21.15;66.38
8101;BME280;4093;53.470;9.832;2023-08-07T11:55:07;100612.94;;;20.13;68.18
8101;BME280;4093;53.470;9.832;2023-08-07T11:57:38;100628.38;;;20.76;68.51
8101;BME280;4093;53.470;9.832;2023-08-07T12:00:07;100657.63;;;21.13;67.56
8101;BME280;4093;53.470;9.832;2023-08-07T12:02:42;100646.41;;;20.82;68.49
8101;BME280;4093;53.470;9.832;2023-08-07T12:05:11;100621.72;;;20.70;67.31
8101;BME280;4093;53.470;9.832;2023-08-07T12:07:40;100652.56;;;21.10;67.50
8101;BME280;4093;53.470;9.832;2023-08-07T12:10:08;100638.69;;;20.93;67.64
8101;BME280;4093;53.470;9.832;2023-08-07T12:12:37;100647.97;;;21.55;66.85
8101;BME280;4093;53.470;9.832;2023-08-07T12:15:07;100655.22;;;21.51;66.81
8101;BME280;4093;53.470;9.832;2023-08-07T12:17:35;100654.66;;;20.90;69.00
8101;BME280;4093;53.470;9.832;2023-08-07T12:20:05;100650.72;;;20.54;69.63
8101;BME280;4093;53.470;9.832;2023-08-07T12:22:39;100648.69;;;20.29;70.33
8101;BME280;4093;53.470;9.832;2023-08-07T12:25:07;100654.81;;;21.01;68.65
8101;BME280;4093;53.470;9.832;2023-08-07T12:27:34;100660.28;;;20.55;68.29
8101;BME280;4093;53.470;9.832;2023-08-07T12:30:03;100665.84;;;20.94;66.60
8101;BME280;4093;53.470;9.832;2023-08-07T12:32:30;100653.53;;;20.80;65.19
8101;BME280;4093;53.470;9.832;2023-08-07T12:34:58;100648.22;;;21.09;63.51
8101;BME280;4093;53.470;9.832;2023-08-07T12:37:29;100625.16;;;20.99;62.71
8101;BME280;4093;53.470;9.832;2023-08-07T12:39:58;100644.75;;;21.08;63.55
8101;BME280;4093;53.470;9.832;2023-08-07T12:42:28;100635.59;;;21.42;63.59
8101;BME280;4093;53.470;9.832;2023-08-07T12:44:57;100642.91;;;21.79;62.50
8101;BME280;4093;53.470;9.832;2023-08-07T12:47:25;100613.00;;;21.92;59.15
8101;BME280;4093;53.470;9.832;2023-08-07T12:49:52;100645.34;;;22.34;59.28
8101;BME280;4093;53.470;9.832;2023-08-07T12:52:20;100629.22;;;21.32;59.63
8101;BME280;4093;53.470;9.832;2023-08-07T12:54:48;100627.13;;;20.96;60.07
8101;BME280;4093;53.470;9.832;2023-08-07T12:57:17;100653.16;;;20.72;61.07
8101;BME280;4093;53.470;9.832;2023-08-07T12:59:44;100638.31;;;20.85;61.63
8101;BME280;4093;53.470;9.832;2023-08-07T13:02:12;100664.56;;;20.42;62.91
8101;BME280;4093;53.470;9.832;2023-08-07T13:04:40;100678.81;;;19.62;66.62
8101;BME280;4093;53.470;9.832;2023-08-07T13:07:08;100700.88;;;19.90;68.26
8101;BME280;4093;53.470;9.832;2023-08-07T13:09:35;100710.50;;;20.35;68.16
8101;BME280;4093;53.470;9.832;2023-08-07T13:12:04;100693.88;;;19.90;67.01
8101;BME280;4093;53.470;9.832;2023-08-07T13:14:33;100707.63;;;20.84;64.32
8101;BME280;4093;53.470;9.832;2023-08-07T13:17:01;100709.94;;;20.89;65.29
8101;BME280;4093;53.470;9.832;2023-08-07T13:19:28;100658.84;;;20.50;66.06